Etusivu
METAR-TAF:

METAR-TAF

Lentoasemat :

Oulun lentoasema

Oulu, Suomi

Leveyspiiri: 64-56N, Pituuspiiri: 025-22E, korkeus merenpinnasta: 12 m

Tämänhetkinen sää

Tämä raportti tehtiin 16 minuuttia sitten, kello 13.20 UTC
Tuuli 13 kn lännestä
Lämpötila 13°C
Kosteus 38%
Ilmanpaine 1029 hPa
Näkyvyys 10 km tai enemmän

METAR: EFOU 241320Z AUTO 28013KT 9999 OVC094/// 13/M01 Q1029

Aika: 16:36 (13:36 UTC)

Sääennuste

Tämä raportti tehtiin 2 tuntia ja 6 minuuttia sitten, kello 11.30 UTC
Ennuste voimassa 24. päivästä klo 12 UTC - 25. päivään klo 12 UTC
Tuuli 13 kn lännestä
Näkyvyys 10 km tai enemmän
ei pilviä alle 1500 m:ssä eikä cumulonimbus-pilviä
Tulossa
24. päivästä klo 18 UTC - 24. päivään klo 20 UTC
Tuuli 4 kn etelästä
Tulossa
25. päivästä klo 09 UTC - 25. päivään klo 11 UTC
Tuuli 10 kn lännestä/lounaasta

TAF: EFOU 241130Z 2412/2512 27013KT CAVOK BECMG 2418/2420 18004KT BECMG 2509/2511 25010KT

Säähavainnot ja -ennusteet yli 4000 lentoasemalta (METAR- ja TAF-raportit).

Käytössä olevat sääasemat on merkitty karttaan keltaisilla ja punaisilla pisteillä.

Aseta hiiri pisteen päälle nähdäksesi sääaseman nimen.

Klikkaa sitten nähdäksesi säähavainnot ja -ennusteet.

Kartan vaihtaminen: klikkaa mustalla rastilla varustettuja vihreitä pisteitä, niin voit zoomata sisään; viivalla varustettua vihreää pistettä, niin voit zoomata ulos tai vihreitä nuolia, niin pääset viereisille kartoille.


METAR-TAF: